ハリファックス の空港の天気 - METARとTAF

ハリファックス国際空港 ( CYHZ / YHZ ) - カナダ ノバスコシア州ハリファックス
飛行場実況気象(Metar)
観測時間01/21 13:00 AST (01/21 17:00 UTC)
風向・風速西北西 8m/s 瞬間風速11m/s
視程10km以上
天気現象
少しの雲 雲底高度 7620m
気温-2℃
湿度54%
気圧1014.1hPa
METARCYHZ 211700Z 30016G21KT 15SM FEW250 M02/M10 A2992 RMK CI2 SLP141
過去の天気等 Google飛行場航空写真 Wunderground天気予報

過去48時間のMETAR

飛行場予報(TAF)
発表時間: 1/21 13:38 AST (1/21 17:38 UTC)
予報対象時間: 21日14時 AST ~ 22日14時 AST
風向・風速西北西 8m/s 瞬間風速 13m/s
視程10km以上
なし
21日16時 AST ~ 21日18時 AST に徐々に
風向・風速西北西 8m/s
21日23時 AST ~ 22日1時 AST に徐々に
風向・風速北西 4m/s
22日5時 AST から
風向・風速北 4m/s
視程10km以上
全天の8割程度の雲 雲底高度 4,570m
TAF CYHZ 211738Z 2118/2218 30015G25KT P6SM SKC
BECMG 2120/2122 30015KT
BECMG 2203/2205 32008KT
FM220900 35008KT P6SM BKN150 RMK NXT FCST BY 212100Z